Time;durP1;ratioP1;P1;durP2;ratioP2;P2;SDS_P1;SDS_P2;PMS_P1;PMS_P2;Temp;Humidity;BMP_temperature;BMP_pressure;BME280_temperature;BME280_humidity;BME280_pressure;Samples;Min_cycle;Max_cycle;Signal;HPM_P1;HPM_P2
2023/08/30 00:01:21;;;;;;;13.82;12.27;;;;;;;;;;5052290;28;20042;-67
2023/08/30 00:03:47;;;;;;;13.27;11.82;;;;;;;;;;5055553;28;20170;-68
2023/08/30 00:06:13;;;;;;;16.13;11.68;;;;;;;;;;5053914;28;20543;-68
2023/08/30 00:08:39;;;;;;;14.23;11.52;;;;;;;;;;5054287;28;20046;-68
2023/08/30 00:11:05;;;;;;;13.70;12.18;;;;;;;;;;5055165;28;20043;-67
2023/08/30 00:13:35;;;;;;;12.93;11.30;;;;;;;;;;5055900;28;20050;-67
2023/08/30 00:16:02;;;;;;;13.90;11.77;;;;;;;;;;5056147;28;20020;-67
2023/08/30 00:18:28;;;;;;;12.05;10.05;;;;;;;;;;5052727;28;20047;-67
2023/08/30 00:20:56;;;;;;;16.15;11.40;;;;;;;;;;5054302;28;20062;-67
2023/08/30 00:23:22;;;;;;;15.50;11.75;;;;;;;;;;5054546;28;20123;-67
2023/08/30 00:25:48;;;;;;;13.52;10.88;;;;;;;;;;5055316;28;20114;-67
2023/08/30 00:28:15;;;;;;;13.20;10.52;;;;;;;;;;5053928;28;20035;-67
2023/08/30 00:30:41;;;;;;;13.25;11.57;;;;;;;;;;5054029;28;20028;-67
2023/08/30 00:33:07;;;;;;;12.68;10.65;;;;;;;;;;5054514;28;20033;-68
2023/08/30 00:35:33;;;;;;;12.25;11.00;;;;;;;;;;5054290;28;20039;-67
2023/08/30 00:37:59;;;;;;;13.13;11.77;;;;;;;;;;5055017;28;20124;-68
2023/08/30 00:40:26;;;;;;;13.25;11.77;;;;;;;;;;5053620;28;20024;-68
2023/08/30 00:42:52;;;;;;;14.52;12.45;;;;;;;;;;5054575;28;20043;-67
2023/08/30 00:45:18;;;;;;;11.45;10.25;;;;;;;;;;5054772;28;20134;-67
2023/08/30 00:47:44;;;;;;;12.55;10.98;;;;;;;;;;5054774;28;20628;-68
2023/08/30 00:50:11;;;;;;;13.20;11.38;;;;;;;;;;5052489;28;20057;-67
2023/08/30 00:52:37;;;;;;;12.73;10.95;;;;;;;;;;5054737;28;20036;-68
2023/08/30 00:55:03;;;;;;;12.13;10.82;;;;;;;;;;5052685;28;20036;-68
2023/08/30 00:57:30;;;;;;;11.70;10.07;;;;;;;;;;5054768;28;20028;-68
2023/08/30 00:59:56;;;;;;;12.32;10.65;;;;;;;;;;5052699;28;20029;-68
2023/08/30 01:02:22;;;;;;;11.60;10.40;;;;;;;;;;5055543;28;20039;-67
2023/08/30 01:04:48;;;;;;;12.38;10.32;;;;;;;;;;5054658;28;20502;-68
2023/08/30 01:07:14;;;;;;;12.13;10.15;;;;;;;;;;5052070;28;20414;-67
2023/08/30 01:09:40;;;;;;;11.50;9.73;;;;;;;;;;5053425;28;20036;-67
2023/08/30 01:12:10;;;;;;;12.30;10.43;;;;;;;;;;5052997;28;20121;-67
2023/08/30 01:14:55;;;;;;;12.98;10.88;;;;;;;;;;5050602;28;20399;-67
2023/08/30 01:17:22;;;;;;;10.85;9.75;;;;;;;;;;5052805;28;20025;-67
2023/08/30 01:19:51;;;;;;;11.95;10.07;;;;;;;;;;5053330;28;20019;-67
2023/08/30 01:22:20;;;;;;;11.65;10.02;;;;;;;;;;5057132;28;20064;-68
2023/08/30 01:24:53;;;;;;;12.82;10.18;;;;;;;;;;5057738;28;20039;-67
2023/08/30 01:27:20;;;;;;;12.00;9.80;;;;;;;;;;5057263;28;21736;-63
2023/08/30 01:29:46;;;;;;;13.27;11.18;;;;;;;;;;5058365;28;20127;-63
2023/08/30 01:32:13;;;;;;;13.95;10.15;;;;;;;;;;5058679;28;20063;-63
2023/08/30 01:34:40;;;;;;;12.18;9.80;;;;;;;;;;5058031;28;20020;-63
2023/08/30 01:37:09;;;;;;;12.70;10.95;;;;;;;;;;5057802;28;20028;-63
2023/08/30 01:39:38;;;;;;;12.13;8.80;;;;;;;;;;5058208;28;20423;-63
2023/08/30 01:42:05;;;;;;;11.20;9.48;;;;;;;;;;5058260;28;20046;-63
2023/08/30 01:44:33;;;;;;;12.65;9.68;;;;;;;;;;5057535;28;20032;-63
2023/08/30 01:47:02;;;;;;;11.95;9.82;;;;;;;;;;5059153;28;20052;-63
2023/08/30 01:49:33;;;;;;;12.23;9.73;;;;;;;;;;5055811;28;20659;-63
2023/08/30 01:52:00;;;;;;;11.85;9.85;;;;;;;;;;5053754;28;20028;-63
2023/08/30 01:54:27;;;;;;;11.52;8.82;;;;;;;;;;5055793;28;21756;-63
2023/08/30 01:56:53;;;;;;;15.50;10.55;;;;;;;;;;5056547;28;20058;-63
2023/08/30 01:59:19;;;;;;;11.45;9.23;;;;;;;;;;5055946;28;20025;-63
2023/08/30 02:01:45;;;;;;;11.27;8.98;;;;;;;;;;5056228;28;20036;-63
2023/08/30 02:04:11;;;;;;;12.20;9.75;;;;;;;;;;5056625;28;20039;-63
2023/08/30 02:06:49;;;;;;;12.57;10.18;;;;;;;;;;5055678;28;20033;-63
2023/08/30 02:09:18;;;;;;;14.32;10.88;;;;;;;;;;5056975;28;20394;-63
2023/08/30 02:11:45;;;;;;;11.57;10.02;;;;;;;;;;5058659;28;20107;-63
2023/08/30 02:14:12;;;;;;;11.20;9.55;;;;;;;;;;5057146;28;20942;-63
2023/08/30 02:16:40;;;;;;;12.15;9.65;;;;;;;;;;5055464;28;20032;-63
2023/08/30 02:19:07;;;;;;;11.27;9.43;;;;;;;;;;5057190;28;20032;-63
2023/08/30 02:21:33;;;;;;;12.57;9.07;;;;;;;;;;5055962;28;21867;-63
2023/08/30 02:23:59;;;;;;;12.38;9.82;;;;;;;;;;5056505;28;20509;-63
2023/08/30 02:26:25;;;;;;;11.77;9.68;;;;;;;;;;5057028;28;20656;-63
2023/08/30 02:28:51;;;;;;;12.15;10.05;;;;;;;;;;5057043;28;20089;-63
2023/08/30 02:31:17;;;;;;;12.10;10.07;;;;;;;;;;5057497;28;20027;-63
2023/08/30 02:33:43;;;;;;;12.45;9.75;;;;;;;;;;5054802;28;20036;-63
2023/08/30 02:36:10;;;;;;;16.02;10.23;;;;;;;;;;5056512;28;20032;-63
2023/08/30 02:38:36;;;;;;;12.30;10.48;;;;;;;;;;5055609;28;20074;-63
2023/08/30 02:41:02;;;;;;;12.10;9.90;;;;;;;;;;5057362;28;20763;-63
2023/08/30 02:43:28;;;;;;;12.15;9.82;;;;;;;;;;5057029;28;20032;-63
2023/08/30 02:45:54;;;;;;;12.65;10.35;;;;;;;;;;5056512;28;20028;-63
2023/08/30 02:48:21;;;;;;;12.20;9.55;;;;;;;;;;5056354;28;20995;-68
2023/08/30 02:50:47;;;;;;;11.23;9.07;;;;;;;;;;5055725;28;20028;-67
2023/08/30 02:53:13;;;;;;;12.98;10.07;;;;;;;;;;5056944;28;20028;-67
2023/08/30 02:55:39;;;;;;;10.93;8.88;;;;;;;;;;5055018;28;20028;-67
2023/08/30 02:58:05;;;;;;;12.43;8.77;;;;;;;;;;5057058;28;20071;-67
2023/08/30 03:00:31;;;;;;;13.70;9.02;;;;;;;;;;5054667;28;20510;-67
2023/08/30 03:02:57;;;;;;;12.52;8.82;;;;;;;;;;5056579;28;20616;-67
2023/08/30 03:05:23;;;;;;;10.43;7.80;;;;;;;;;;5055199;28;20051;-67
2023/08/30 03:07:51;;;;;;;10.82;8.75;;;;;;;;;;5056156;28;20044;-67
2023/08/30 03:10:17;;;;;;;14.18;8.65;;;;;;;;;;5056199;28;20036;-67
2023/08/30 03:12:43;;;;;;;12.77;9.18;;;;;;;;;;5056064;28;20402;-67
2023/08/30 03:15:09;;;;;;;12.43;7.80;;;;;;;;;;5056687;28;20068;-67
2023/08/30 03:17:36;;;;;;;10.85;8.52;;;;;;;;;;5056892;28;20028;-67
2023/08/30 03:20:03;;;;;;;9.98;7.22;;;;;;;;;;5056128;28;20774;-67
2023/08/30 03:22:30;;;;;;;11.05;8.18;;;;;;;;;;5055389;28;20031;-67
2023/08/30 03:24:56;;;;;;;10.43;7.90;;;;;;;;;;5054718;28;20035;-68
2023/08/30 03:27:22;;;;;;;10.52;7.93;;;;;;;;;;5055963;28;20032;-68
2023/08/30 03:29:48;;;;;;;11.30;7.95;;;;;;;;;;5055665;28;20040;-67
2023/08/30 03:32:17;;;;;;;9.07;7.28;;;;;;;;;;5056136;28;20542;-67
2023/08/30 03:34:45;;;;;;;10.98;7.85;;;;;;;;;;5054533;28;20111;-67
2023/08/30 03:37:12;;;;;;;11.45;8.50;;;;;;;;;;5055131;28;20031;-67
2023/08/30 03:39:38;;;;;;;10.57;8.52;;;;;;;;;;5056391;28;20062;-67
2023/08/30 03:42:07;;;;;;;11.98;8.63;;;;;;;;;;5056322;28;20025;-67
2023/08/30 03:44:33;;;;;;;9.90;7.65;;;;;;;;;;5055452;28;20126;-66
2023/08/30 03:46:59;;;;;;;13.88;9.18;;;;;;;;;;5053621;28;20043;-66
2023/08/30 03:49:25;;;;;;;10.93;8.52;;;;;;;;;;5053064;28;20028;-68
2023/08/30 03:51:51;;;;;;;11.73;7.88;;;;;;;;;;5054190;28;20105;-67
2023/08/30 03:54:17;;;;;;;10.60;7.70;;;;;;;;;;5052458;28;20083;-67
2023/08/30 03:56:44;;;;;;;12.77;8.18;;;;;;;;;;5053747;28;20067;-67
2023/08/30 03:59:10;;;;;;;12.57;8.65;;;;;;;;;;5055310;28;20481;-67
2023/08/30 04:01:36;;;;;;;11.95;8.52;;;;;;;;;;5051844;28;20151;-68
2023/08/30 04:04:02;;;;;;;11.25;8.98;;;;;;;;;;5054630;28;20074;-67
2023/08/30 04:06:28;;;;;;;11.27;8.45;;;;;;;;;;5054938;28;20036;-68
2023/08/30 04:08:54;;;;;;;15.57;9.63;;;;;;;;;;5054760;28;20130;-68
2023/08/30 04:11:20;;;;;;;10.55;8.75;;;;;;;;;;5054807;28;20760;-67
2023/08/30 04:13:46;;;;;;;14.93;10.60;;;;;;;;;;5054911;28;20032;-68
2023/08/30 04:16:12;;;;;;;11.20;8.73;;;;;;;;;;5055077;28;20024;-67
2023/08/30 04:18:38;;;;;;;13.02;9.85;;;;;;;;;;5055288;28;20043;-68
2023/08/30 04:21:06;;;;;;;12.30;9.18;;;;;;;;;;5054714;28;20035;-68
2023/08/30 04:23:32;;;;;;;14.98;9.73;;;;;;;;;;5055566;28;20033;-67
2023/08/30 04:25:58;;;;;;;12.40;9.15;;;;;;;;;;5054765;28;20035;-67
2023/08/30 04:28:24;;;;;;;12.38;10.15;;;;;;;;;;5055127;28;20035;-67
2023/08/30 04:30:53;;;;;;;11.85;9.18;;;;;;;;;;5055689;28;20218;-67
2023/08/30 04:33:19;;;;;;;14.93;9.88;;;;;;;;;;5053982;28;20112;-67
2023/08/30 04:35:50;;;;;;;13.10;9.45;;;;;;;;;;5055904;28;20033;-67
2023/08/30 04:38:16;;;;;;;11.20;8.88;;;;;;;;;;5054209;28;20039;-67
2023/08/30 04:40:42;;;;;;;12.10;9.73;;;;;;;;;;5054051;28;20039;-67
2023/08/30 04:43:08;;;;;;;14.13;9.68;;;;;;;;;;5055526;28;20143;-68
2023/08/30 04:45:37;;;;;;;14.68;10.52;;;;;;;;;;5049224;28;20105;-68
2023/08/30 04:48:04;;;;;;;14.48;9.93;;;;;;;;;;5055111;28;20028;-68
2023/08/30 04:50:30;;;;;;;14.00;9.43;;;;;;;;;;5053389;28;20593;-67
2023/08/30 04:52:56;;;;;;;10.95;8.60;;;;;;;;;;5054412;28;20032;-68
2023/08/30 04:55:24;;;;;;;12.43;9.10;;;;;;;;;;5051435;28;20398;-67
2023/08/30 04:57:50;;;;;;;11.48;8.85;;;;;;;;;;5052608;28;20036;-67
2023/08/30 05:00:17;;;;;;;11.60;9.15;;;;;;;;;;5053733;28;20584;-68
2023/08/30 05:02:46;;;;;;;11.30;8.85;;;;;;;;;;5054025;28;20044;-68
2023/08/30 05:05:12;;;;;;;10.82;9.07;;;;;;;;;;5053441;28;20573;-67
2023/08/30 05:07:38;;;;;;;11.05;8.73;;;;;;;;;;5053411;28;20051;-68
2023/08/30 05:10:05;;;;;;;13.52;9.70;;;;;;;;;;5054240;28;20933;-67
2023/08/30 05:12:31;;;;;;;11.88;8.70;;;;;;;;;;5053477;28;20041;-68
2023/08/30 05:14:57;;;;;;;11.95;8.57;;;;;;;;;;5053119;28;20050;-67
2023/08/30 05:17:23;;;;;;;10.63;8.32;;;;;;;;;;5054220;28;20733;-67
2023/08/30 05:19:50;;;;;;;11.98;8.20;;;;;;;;;;5054096;28;20575;-67
2023/08/30 05:22:16;;;;;;;13.73;8.35;;;;;;;;;;5046290;28;21783;-67
2023/08/30 05:24:42;;;;;;;12.95;9.10;;;;;;;;;;5049819;28;20095;-67
2023/08/30 05:27:08;;;;;;;10.23;8.13;;;;;;;;;;5051830;28;20471;-67
2023/08/30 05:29:34;;;;;;;10.77;8.13;;;;;;;;;;5053022;28;20032;-67
2023/08/30 05:32:00;;;;;;;11.20;8.45;;;;;;;;;;5051736;28;20145;-67
2023/08/30 05:34:27;;;;;;;11.63;8.18;;;;;;;;;;5053319;28;21779;-67
2023/08/30 05:36:54;;;;;;;11.43;8.18;;;;;;;;;;5068141;28;20181;-68
2023/08/30 05:39:20;;;;;;;11.63;8.85;;;;;;;;;;5052654;28;20178;-67
2023/08/30 05:41:46;;;;;;;10.27;8.13;;;;;;;;;;5053683;28;20759;-67
2023/08/30 05:44:12;;;;;;;11.10;8.00;;;;;;;;;;5038851;28;20414;-67
2023/08/30 05:46:38;;;;;;;12.25;8.48;;;;;;;;;;5054092;28;20566;-67
2023/08/30 05:49:04;;;;;;;10.30;7.88;;;;;;;;;;5053021;28;20067;-67
2023/08/30 05:51:30;;;;;;;11.18;8.18;;;;;;;;;;5053525;28;20086;-67
2023/08/30 05:53:57;;;;;;;11.98;8.02;;;;;;;;;;5054726;28;20032;-67
2023/08/30 05:56:23;;;;;;;11.40;8.52;;;;;;;;;;5049873;28;20041;-67
2023/08/30 05:58:49;;;;;;;11.48;8.20;;;;;;;;;;5050638;28;20115;-67
2023/08/30 06:01:18;;;;;;;10.18;8.30;;;;;;;;;;5050223;28;20637;-67
2023/08/30 06:03:45;;;;;;;11.20;8.32;;;;;;;;;;5053762;28;20081;-68
2023/08/30 06:06:11;;;;;;;12.55;7.95;;;;;;;;;;5052425;28;20032;-67
2023/08/30 06:08:37;;;;;;;12.68;7.70;;;;;;;;;;5056863;28;20047;-67
2023/08/30 06:11:04;;;;;;;13.25;7.88;;;;;;;;;;5056377;28;20117;-67
2023/08/30 06:13:30;;;;;;;12.63;8.15;;;;;;;;;;5055860;28;20048;-67
2023/08/30 06:15:56;;;;;;;12.15;7.97;;;;;;;;;;5045525;28;20486;-67
2023/08/30 06:18:22;;;;;;;14.40;8.88;;;;;;;;;;5049366;28;20035;-68
2023/08/30 06:20:48;;;;;;;10.90;7.45;;;;;;;;;;5046408;28;21386;-68
2023/08/30 06:23:15;;;;;;;10.27;7.97;;;;;;;;;;5051430;28;21889;-67
2023/08/30 06:25:41;;;;;;;11.25;8.50;;;;;;;;;;5053719;28;20036;-67
2023/08/30 06:28:07;;;;;;;13.00;8.90;;;;;;;;;;5050686;28;21287;-67
2023/08/30 06:30:33;;;;;;;14.63;8.93;;;;;;;;;;5051703;28;21102;-67
2023/08/30 06:33:00;;;;;;;13.43;8.68;;;;;;;;;;5050803;28;20828;-67
2023/08/30 06:35:26;;;;;;;10.75;8.25;;;;;;;;;;5051613;28;20036;-67
2023/08/30 06:37:52;;;;;;;11.60;7.97;;;;;;;;;;5051260;28;20024;-67
2023/08/30 06:40:19;;;;;;;12.02;8.50;;;;;;;;;;5052146;28;20028;-67
2023/08/30 06:42:45;;;;;;;12.07;8.48;;;;;;;;;;5050076;28;20636;-68
2023/08/30 06:45:11;;;;;;;11.20;7.68;;;;;;;;;;5050959;28;20055;-67
2023/08/30 06:47:40;;;;;;;11.05;8.57;;;;;;;;;;5051197;28;20127;-67
2023/08/30 06:50:09;;;;;;;13.52;8.25;;;;;;;;;;5051612;28;20028;-68
2023/08/30 06:52:36;;;;;;;12.10;8.77;;;;;;;;;;5055009;28;20036;-67
2023/08/30 06:55:02;;;;;;;10.48;7.75;;;;;;;;;;5055997;28;20787;-67
2023/08/30 06:57:28;;;;;;;13.30;8.90;;;;;;;;;;5056899;28;20045;-67
2023/08/30 06:59:54;;;;;;;11.55;8.07;;;;;;;;;;5057721;28;20063;-67
2023/08/30 07:02:20;;;;;;;14.23;8.98;;;;;;;;;;5056553;28;20032;-67
2023/08/30 07:04:46;;;;;;;11.73;8.15;;;;;;;;;;5056332;28;20043;-67
2023/08/30 07:07:13;;;;;;;12.05;7.82;;;;;;;;;;5056671;28;20044;-67
2023/08/30 07:09:41;;;;;;;10.93;7.85;;;;;;;;;;5056182;28;20044;-68
2023/08/30 07:12:07;;;;;;;12.90;7.72;;;;;;;;;;5056541;28;20032;-67
2023/08/30 07:14:33;;;;;;;10.40;7.18;;;;;;;;;;5057528;28;20125;-67
2023/08/30 07:17:00;;;;;;;11.40;7.43;;;;;;;;;;5058003;28;20024;-68
2023/08/30 07:19:26;;;;;;;10.27;7.50;;;;;;;;;;5056757;28;20113;-67
2023/08/30 07:21:52;;;;;;;9.93;7.30;;;;;;;;;;5057467;28;20111;-68
2023/08/30 07:24:18;;;;;;;11.20;7.47;;;;;;;;;;5057026;28;20036;-67
2023/08/30 07:26:44;;;;;;;11.55;7.75;;;;;;;;;;5054651;28;20035;-67
2023/08/30 07:29:10;;;;;;;11.50;8.05;;;;;;;;;;5055844;28;20041;-67
2023/08/30 07:31:41;;;;;;;10.43;7.50;;;;;;;;;;5055624;28;20081;-67
2023/08/30 07:34:07;;;;;;;10.45;7.68;;;;;;;;;;5055613;28;20162;-67
2023/08/30 07:36:34;;;;;;;12.50;8.52;;;;;;;;;;5054815;28;20716;-67
2023/08/30 07:39:00;;;;;;;12.90;7.45;;;;;;;;;;5055225;28;20032;-67
2023/08/30 07:41:26;;;;;;;13.32;7.38;;;;;;;;;;5055983;28;20659;-67
2023/08/30 07:43:52;;;;;;;12.10;7.20;;;;;;;;;;5054523;28;20052;-67
2023/08/30 07:46:18;;;;;;;11.40;6.95;;;;;;;;;;5055219;28;20036;-67
2023/08/30 07:48:44;;;;;;;11.75;6.90;;;;;;;;;;5055395;28;20042;-67
2023/08/30 07:51:10;;;;;;;12.90;7.10;;;;;;;;;;5055039;28;20124;-67
2023/08/30 07:53:36;;;;;;;11.40;7.15;;;;;;;;;;5054314;28;20121;-67
2023/08/30 07:56:02;;;;;;;11.73;7.47;;;;;;;;;;5054710;28;20044;-67
2023/08/30 07:58:28;;;;;;;9.98;7.15;;;;;;;;;;5055002;28;20032;-67
2023/08/30 08:00:54;;;;;;;9.32;6.60;;;;;;;;;;5054437;28;20016;-67
2023/08/30 08:03:23;;;;;;;12.70;7.78;;;;;;;;;;5052657;28;20075;-67
2023/08/30 08:05:49;;;;;;;11.57;7.10;;;;;;;;;;5053002;28;20094;-67
2023/08/30 08:08:16;;;;;;;12.77;7.97;;;;;;;;;;5053852;28;20040;-67
2023/08/30 08:10:43;;;;;;;11.02;7.10;;;;;;;;;;5053872;28;20030;-67
2023/08/30 08:13:09;;;;;;;12.23;8.18;;;;;;;;;;5054180;28;20044;-67
2023/08/30 08:15:35;;;;;;;10.95;7.53;;;;;;;;;;5055555;28;20039;-67
2023/08/30 08:18:02;;;;;;;12.82;8.02;;;;;;;;;;5055411;28;20124;-67
2023/08/30 08:20:29;;;;;;;11.88;7.72;;;;;;;;;;5054505;28;20024;-67
2023/08/30 08:22:55;;;;;;;13.15;8.57;;;;;;;;;;5054272;28;20052;-63
2023/08/30 08:25:23;;;;;;;12.75;8.57;;;;;;;;;;5053399;28;20028;-63
2023/08/30 08:27:50;;;;;;;13.40;7.85;;;;;;;;;;5054409;28;20051;-63
2023/08/30 08:30:17;;;;;;;12.50;8.30;;;;;;;;;;5054005;28;20071;-63
2023/08/30 08:32:43;;;;;;;14.48;8.48;;;;;;;;;;5054922;28;20604;-63
2023/08/30 08:35:09;;;;;;;14.02;8.23;;;;;;;;;;5054298;28;20900;-63
2023/08/30 08:37:35;;;;;;;13.75;7.20;;;;;;;;;;5053401;28;20028;-63
2023/08/30 08:40:08;;;;;;;12.07;7.93;;;;;;;;;;5054010;28;20055;-63
2023/08/30 08:42:34;;;;;;;11.73;8.15;;;;;;;;;;5052876;28;20547;-62
2023/08/30 08:45:02;;;;;;;15.95;8.07;;;;;;;;;;5053332;28;20104;-63
2023/08/30 08:47:30;;;;;;;12.20;7.97;;;;;;;;;;5053555;28;20024;-62
2023/08/30 08:49:56;;;;;;;14.02;8.55;;;;;;;;;;5053656;28;20043;-63
2023/08/30 08:52:24;;;;;;;12.77;8.20;;;;;;;;;;5053381;28;20372;-63
2023/08/30 08:54:50;;;;;;;12.77;7.72;;;;;;;;;;5053054;28;20562;-63
2023/08/30 08:57:17;;;;;;;11.02;7.00;;;;;;;;;;5052768;28;20028;-63
2023/08/30 08:59:44;;;;;;;15.90;7.03;;;;;;;;;;5053132;28;20032;-62
2023/08/30 09:02:12;;;;;;;11.20;7.30;;;;;;;;;;5053983;28;20027;-63
2023/08/30 09:04:39;;;;;;;11.15;7.10;;;;;;;;;;5054896;28;20398;-63
2023/08/30 09:07:05;;;;;;;11.05;6.93;;;;;;;;;;5054131;28;20036;-63
2023/08/30 09:09:32;;;;;;;10.27;6.68;;;;;;;;;;5054775;28;20058;-62
2023/08/30 09:11:58;;;;;;;12.25;7.80;;;;;;;;;;5054178;28;20040;-63
2023/08/30 09:14:24;;;;;;;10.52;7.72;;;;;;;;;;5053460;28;20051;-63
2023/08/30 09:17:02;;;;;;;11.10;7.43;;;;;;;;;;5052985;28;20193;-63
2023/08/30 09:19:29;;;;;;;11.85;7.85;;;;;;;;;;5051918;28;20036;-63
2023/08/30 09:21:55;;;;;;;12.77;7.72;;;;;;;;;;5051654;28;20039;-63
2023/08/30 09:24:21;;;;;;;10.05;6.78;;;;;;;;;;5052861;28;21591;-63
2023/08/30 09:26:49;;;;;;;12.23;6.85;;;;;;;;;;5053113;28;20125;-63
2023/08/30 09:29:16;;;;;;;11.77;7.70;;;;;;;;;;5052053;28;20831;-63
2023/08/30 09:31:43;;;;;;;12.13;7.70;;;;;;;;;;5052259;28;20070;-63
2023/08/30 09:34:10;;;;;;;10.45;7.10;;;;;;;;;;5046684;28;20036;-62
2023/08/30 09:36:43;;;;;;;11.52;7.75;;;;;;;;;;5052047;28;20032;-63
2023/08/30 09:39:09;;;;;;;10.87;7.23;;;;;;;;;;5052397;28;20816;-63
2023/08/30 09:41:36;;;;;;;10.23;7.50;;;;;;;;;;5052443;28;20263;-63
2023/08/30 09:44:12;;;;;;;12.38;8.13;;;;;;;;;;5055400;28;20032;-63
2023/08/30 09:46:42;;;;;;;10.30;7.38;;;;;;;;;;5056393;28;20043;-63
2023/08/30 09:49:09;;;;;;;9.88;6.90;;;;;;;;;;5055306;28;20390;-63
2023/08/30 09:51:36;;;;;;;10.20;7.53;;;;;;;;;;5056558;28;20036;-63
2023/08/30 09:54:05;;;;;;;12.40;8.00;;;;;;;;;;5056158;28;20538;-63
2023/08/30 09:56:33;;;;;;;10.10;7.53;;;;;;;;;;5056802;28;20696;-63
2023/08/30 09:59:00;;;;;;;12.18;8.13;;;;;;;;;;5056653;28;20527;-63
2023/08/30 10:01:27;;;;;;;10.73;7.25;;;;;;;;;;5055808;28;21068;-63
2023/08/30 10:03:55;;;;;;;9.43;6.38;;;;;;;;;;5056247;28;20840;-63
2023/08/30 10:06:21;;;;;;;9.95;7.13;;;;;;;;;;5053005;28;20081;-63
2023/08/30 10:08:49;;;;;;;11.13;7.30;;;;;;;;;;5054536;28;20199;-63
2023/08/30 10:11:17;;;;;;;10.02;7.45;;;;;;;;;;5055717;28;20054;-62
2023/08/30 10:13:44;;;;;;;13.50;7.97;;;;;;;;;;5055001;28;20024;-63
2023/08/30 10:16:12;;;;;;;11.65;7.45;;;;;;;;;;5054488;28;20032;-62
2023/08/30 10:18:39;;;;;;;11.30;6.95;;;;;;;;;;5055890;28;20028;-62
2023/08/30 10:21:08;;;;;;;12.07;6.88;;;;;;;;;;5056158;28;20036;-63
2023/08/30 10:23:35;;;;;;;11.70;7.30;;;;;;;;;;5055406;28;20123;-62
2023/08/30 10:26:01;;;;;;;11.25;7.18;;;;;;;;;;5055920;28;20032;-63
2023/08/30 10:28:28;;;;;;;9.40;6.95;;;;;;;;;;5055389;28;20036;-63
2023/08/30 10:30:54;;;;;;;11.10;7.13;;;;;;;;;;5053961;28;20047;-63
2023/08/30 10:33:25;;;;;;;10.23;6.80;;;;;;;;;;5055459;28;20055;-63
2023/08/30 10:35:51;;;;;;;9.55;6.13;;;;;;;;;;5055478;28;20073;-63
2023/08/30 10:38:44;;;;;;;8.93;6.07;;;;;;;;;;5054968;28;20096;-63
2023/08/30 10:41:10;;;;;;;11.18;5.38;;;;;;;;;;5049782;28;20035;-63
2023/08/30 10:43:37;;;;;;;8.40;5.07;;;;;;;;;;5055656;28;20028;-63
2023/08/30 10:46:06;;;;;;;9.68;5.22;;;;;;;;;;5054746;28;20755;-63
2023/08/30 10:48:36;;;;;;;8.82;5.22;;;;;;;;;;5051716;28;20042;-63
2023/08/30 10:51:04;;;;;;;8.95;5.25;;;;;;;;;;5049908;28;20031;-63
2023/08/30 10:53:31;;;;;;;8.85;5.43;;;;;;;;;;5053886;28;20028;-63
2023/08/30 10:56:03;;;;;;;8.18;5.60;;;;;;;;;;5055473;28;20466;-63
2023/08/30 10:58:39;;;;;;;9.52;5.95;;;;;;;;;;5054715;28;20032;-63
2023/08/30 11:01:06;;;;;;;9.18;5.93;;;;;;;;;;5055635;28;20036;-63
2023/08/30 11:03:32;;;;;;;10.95;5.45;;;;;;;;;;5054465;28;20534;-62
2023/08/30 11:06:01;;;;;;;10.55;6.07;;;;;;;;;;5054027;28;20226;-62
2023/08/30 11:08:28;;;;;;;7.40;5.50;;;;;;;;;;5055010;28;21255;-63
2023/08/30 11:11:03;;;;;;;8.18;4.63;;;;;;;;;;5054603;28;20159;-63
2023/08/30 11:13:29;;;;;;;9.63;5.45;;;;;;;;;;5055073;28;20028;-63
2023/08/30 11:16:00;;;;;;;8.77;4.78;;;;;;;;;;5052796;28;20048;-63
2023/08/30 11:18:26;;;;;;;11.85;4.38;;;;;;;;;;5053508;28;20024;-63
2023/08/30 11:21:02;;;;;;;7.43;3.65;;;;;;;;;;5053688;28;20056;-63
2023/08/30 11:23:28;;;;;;;6.05;3.28;;;;;;;;;;5053512;28;20039;-63
2023/08/30 11:25:54;;;;;;;6.25;3.53;;;;;;;;;;5054797;28;20036;-63
2023/08/30 11:28:24;;;;;;;7.60;3.85;;;;;;;;;;5055045;28;20047;-67
2023/08/30 11:30:52;;;;;;;8.23;3.20;;;;;;;;;;5054711;28;20036;-68
2023/08/30 11:33:21;;;;;;;6.80;3.40;;;;;;;;;;5053955;28;20070;-68
2023/08/30 11:35:49;;;;;;;7.95;3.40;;;;;;;;;;5052669;28;20309;-67
2023/08/30 11:38:15;;;;;;;6.80;3.53;;;;;;;;;;5051208;28;20028;-67
2023/08/30 11:40:41;;;;;;;5.45;3.40;;;;;;;;;;5054032;28;21836;-68
2023/08/30 11:43:08;;;;;;;6.90;3.60;;;;;;;;;;5049343;28;20059;-68
2023/08/30 11:45:34;;;;;;;6.05;3.10;;;;;;;;;;5042090;28;20040;-68
2023/08/30 11:48:01;;;;;;;6.05;3.42;;;;;;;;;;5046603;28;20041;-67
2023/08/30 11:50:27;;;;;;;6.15;3.45;;;;;;;;;;5047355;28;20060;-67
2023/08/30 11:52:54;;;;;;;6.80;3.80;;;;;;;;;;5047223;28;20036;-67
2023/08/30 11:55:21;;;;;;;7.68;3.65;;;;;;;;;;5046655;28;21819;-67
2023/08/30 11:57:50;;;;;;;6.95;3.95;;;;;;;;;;5048262;28;20027;-67
2023/08/30 12:00:18;;;;;;;7.18;4.30;;;;;;;;;;5047169;28;20031;-67
2023/08/30 12:02:46;;;;;;;7.72;3.92;;;;;;;;;;5048400;28;20020;-67
2023/08/30 12:05:13;;;;;;;8.13;4.60;;;;;;;;;;5046922;28;20161;-67
2023/08/30 12:07:40;;;;;;;8.80;4.38;;;;;;;;;;5046169;28;20425;-67
2023/08/30 12:10:06;;;;;;;9.00;5.10;;;;;;;;;;5045797;28;20079;-68
2023/08/30 12:12:32;;;;;;;11.48;5.05;;;;;;;;;;5044744;28;20565;-68
2023/08/30 12:14:58;;;;;;;8.90;4.95;;;;;;;;;;5045593;28;20171;-67
2023/08/30 12:17:25;;;;;;;9.02;5.40;;;;;;;;;;5047093;28;20032;-68
2023/08/30 12:19:57;;;;;;;9.80;4.60;;;;;;;;;;5045556;28;20024;-68
2023/08/30 12:22:24;;;;;;;9.07;5.65;;;;;;;;;;5046451;28;20024;-68
2023/08/30 12:24:50;;;;;;;8.43;5.15;;;;;;;;;;5048518;28;20075;-68
2023/08/30 12:27:16;;;;;;;8.50;5.53;;;;;;;;;;5049173;28;20053;-67
2023/08/30 12:29:42;;;;;;;7.55;5.10;;;;;;;;;;5046903;28;20072;-68
2023/08/30 12:32:08;;;;;;;8.65;5.47;;;;;;;;;;5048871;28;20077;-68
2023/08/30 12:34:35;;;;;;;8.52;5.72;;;;;;;;;;5048772;28;20032;-67
2023/08/30 12:37:02;;;;;;;8.95;5.55;;;;;;;;;;5048874;28;20024;-68
2023/08/30 12:39:31;;;;;;;10.05;5.88;;;;;;;;;;5043809;28;20032;-68
2023/08/30 12:41:57;;;;;;;9.38;6.43;;;;;;;;;;5048573;28;20032;-68
2023/08/30 12:44:23;;;;;;;9.75;5.95;;;;;;;;;;5047125;28;20071;-69
2023/08/30 12:46:49;;;;;;;8.70;5.90;;;;;;;;;;5049656;28;21096;-69
2023/08/30 12:49:15;;;;;;;9.70;5.80;;;;;;;;;;5051441;28;20032;-69
2023/08/30 12:51:41;;;;;;;8.38;6.13;;;;;;;;;;5052281;28;20101;-69
2023/08/30 12:54:07;;;;;;;12.98;7.55;;;;;;;;;;5052196;28;20093;-70
2023/08/30 12:56:34;;;;;;;10.55;7.25;;;;;;;;;;5049760;28;20028;-70
2023/08/30 12:59:00;;;;;;;11.98;7.43;;;;;;;;;;5053415;28;20029;-71
2023/08/30 13:01:26;;;;;;;13.18;7.72;;;;;;;;;;5053420;28;20035;-71
2023/08/30 13:03:52;;;;;;;16.38;8.27;;;;;;;;;;5053321;28;20414;-71
2023/08/30 13:06:18;;;;;;;10.27;7.13;;;;;;;;;;5053351;28;20032;-71
2023/08/30 13:08:44;;;;;;;12.35;7.50;;;;;;;;;;5053347;28;20044;-72
2023/08/30 13:11:10;;;;;;;15.00;8.40;;;;;;;;;;5053241;28;20474;-72
2023/08/30 13:13:37;;;;;;;12.68;8.57;;;;;;;;;;5053758;28;20032;-71
2023/08/30 13:16:03;;;;;;;11.70;7.63;;;;;;;;;;5053690;28;20051;-71
2023/08/30 13:18:29;;;;;;;13.00;8.05;;;;;;;;;;5053250;28;20031;-71
2023/08/30 13:20:55;;;;;;;11.95;9.00;;;;;;;;;;5053228;28;20097;-71
2023/08/30 13:23:21;;;;;;;13.95;8.63;;;;;;;;;;5053804;28;20811;-71
2023/08/30 13:25:49;;;;;;;12.80;8.73;;;;;;;;;;5053426;28;20132;-71
2023/08/30 13:28:15;;;;;;;13.32;9.02;;;;;;;;;;5054226;28;20113;-70
2023/08/30 13:30:45;;;;;;;12.23;9.38;;;;;;;;;;5054073;28;20027;-70
2023/08/30 13:33:11;;;;;;;14.75;9.10;;;;;;;;;;5053112;28;20124;-71
2023/08/30 13:35:39;;;;;;;14.60;10.35;;;;;;;;;;5053537;28;20040;-70
2023/08/30 13:38:05;;;;;;;13.13;9.15;;;;;;;;;;5053428;28;20047;-71
2023/08/30 13:40:31;;;;;;;11.90;8.57;;;;;;;;;;5053101;28;20024;-71
2023/08/30 13:42:57;;;;;;;13.85;9.68;;;;;;;;;;5052997;28;20082;-70
2023/08/30 13:45:23;;;;;;;15.55;9.98;;;;;;;;;;5054001;28;20024;-71
2023/08/30 13:47:52;;;;;;;13.77;8.55;;;;;;;;;;5054008;28;20047;-71
2023/08/30 13:50:19;;;;;;;14.13;9.95;;;;;;;;;;5053147;28;20048;-70
2023/08/30 13:52:45;;;;;;;10.85;7.82;;;;;;;;;;5053533;28;20075;-70
2023/08/30 13:55:11;;;;;;;11.45;7.70;;;;;;;;;;5053343;28;20028;-71
2023/08/30 13:57:37;;;;;;;11.30;8.15;;;;;;;;;;5053246;28;20028;-70
2023/08/30 14:00:09;;;;;;;13.02;8.82;;;;;;;;;;5052864;28;20032;-70
2023/08/30 14:02:35;;;;;;;14.50;8.68;;;;;;;;;;5052455;28;20056;-70
2023/08/30 14:05:01;;;;;;;13.38;8.88;;;;;;;;;;5052671;28;20082;-70
2023/08/30 14:07:27;;;;;;;14.90;10.07;;;;;;;;;;5052788;28;20028;-71
2023/08/30 14:09:53;;;;;;;10.68;7.63;;;;;;;;;;5052573;28;20047;-70
2023/08/30 14:12:19;;;;;;;11.90;8.05;;;;;;;;;;5053154;28;20032;-71
2023/08/30 14:14:46;;;;;;;10.55;7.90;;;;;;;;;;5053039;28;20042;-70
2023/08/30 14:17:12;;;;;;;10.60;8.25;;;;;;;;;;5051213;28;20103;-70
2023/08/30 14:19:41;;;;;;;11.30;8.32;;;;;;;;;;5050611;28;20063;-71
2023/08/30 14:22:07;;;;;;;9.75;7.15;;;;;;;;;;5052174;28;20118;-70
2023/08/30 14:24:33;;;;;;;9.07;6.80;;;;;;;;;;5051435;28;20036;-70
2023/08/30 14:27:01;;;;;;;7.07;4.53;;;;;;;;;;5050979;28;20093;-70
2023/08/30 14:29:27;;;;;;;7.80;5.00;;;;;;;;;;5055718;28;20082;-70